createdAt,value
2018-07-13T00:00:50.164Z,57.97
2018-07-13T00:30:50.350Z,56.88
2018-07-13T00:45:51.041Z,57.03
2018-07-13T01:00:51.013Z,56.84
2018-07-13T01:15:49.786Z,57.86
2018-07-13T01:30:51.244Z,57.48
2018-07-13T01:45:50.656Z,57.10
2018-07-13T02:00:50.117Z,57.07
2018-07-13T02:15:50.357Z,56.88
2018-07-13T02:30:50.107Z,57.04
2018-07-13T02:45:50.096Z,57.85
2018-07-13T03:00:50.770Z,56.94
2018-07-13T03:15:50.478Z,62.11
2018-07-13T03:30:50.452Z,60.79
2018-07-13T03:45:51.084Z,59.47
2018-07-13T04:00:53.086Z,58.12
2018-07-13T04:15:51.129Z,57.88
2018-07-13T04:30:51.722Z,57.10
2018-07-13T04:45:50.644Z,56.36
2018-07-13T05:00:50.562Z,55.63
2018-07-13T05:15:50.056Z,54.62
2018-07-13T05:30:50.525Z,53.16
2018-07-13T05:45:49.893Z,52.84
2018-07-13T06:00:50.960Z,51.10
2018-07-13T06:15:50.797Z,49.96
2018-07-13T06:30:50.778Z,49.54
2018-07-13T06:45:50.163Z,47.43
2018-07-13T07:00:55.186Z,45.93
2018-07-13T07:15:51.687Z,44.02
2018-07-13T07:45:50.560Z,40.23
2018-07-13T09:15:50.731Z,33.64
2018-07-13T09:30:50.814Z,33.60
2018-07-13T10:30:50.289Z,32.50
2018-07-13T11:15:51.538Z,32.58
2018-07-13T12:00:51.033Z,35.02
2018-07-13T12:15:50.923Z,36.94
2018-07-13T12:30:50.937Z,40.80
2018-07-13T12:45:50.412Z,43.22
2018-07-13T13:00:50.759Z,44.90
2018-07-13T13:15:50.360Z,46.20
2018-07-13T13:30:50.263Z,46.91
2018-07-13T13:45:50.819Z,46.77
2018-07-13T14:00:50.788Z,47.64
2018-07-13T14:15:50.989Z,47.97
2018-07-13T14:30:50.640Z,51.74
2018-07-13T14:45:53.238Z,51.98
2018-07-13T15:00:52.102Z,51.33
2018-07-13T15:15:51.055Z,51.49
2018-07-13T15:30:50.959Z,51.67
2018-07-13T15:45:50.428Z,52.17
2018-07-13T16:00:50.472Z,51.65
2018-07-13T16:15:50.458Z,52.67
2018-07-13T16:30:50.347Z,49.45
2018-07-13T16:45:50.849Z,51.36
2018-07-13T17:00:51.781Z,51.71
2018-07-13T17:15:50.724Z,52.26
2018-07-13T17:30:50.740Z,52.96
2018-07-13T17:45:55.721Z,51.99
2018-07-13T18:00:50.199Z,52.18
2018-07-13T18:15:50.171Z,51.99
2018-07-13T18:30:49.913Z,54.15
2018-07-13T18:45:51.884Z,53.13
2018-07-13T19:00:50.511Z,54.33
2018-07-13T19:15:52.791Z,57.18
2018-07-13T19:30:50.305Z,57.08
2018-07-13T19:45:50.210Z,56.51
2018-07-13T20:00:50.989Z,56.98
2018-07-13T20:15:51.293Z,55.46
2018-07-13T20:30:51.137Z,55.76
2018-07-13T20:45:50.056Z,54.82
2018-07-13T21:00:50.269Z,53.61
2018-07-13T21:15:50.066Z,53.79
2018-07-13T21:30:50.230Z,54.48
2018-07-13T21:45:52.922Z,53.44
2018-07-13T22:00:50.672Z,54.38
2018-07-13T22:15:50.565Z,53.58
2018-07-13T22:30:52.868Z,53.09
2018-07-13T22:45:50.842Z,53.49
2018-07-13T23:00:50.964Z,51.88
2018-07-13T23:15:50.985Z,52.45
2018-07-13T23:30:50.673Z,52.84
2018-07-13T23:45:50.097Z,51.56
